sensor_id;sensor_type;location;lat;lon;timestamp;P1;durP1;ratioP1;P2;durP2;ratioP2
26391;SDS011;14572;43.120;1.178;2022-07-17T00:00:08;3.67;;;2.80;;
26391;SDS011;14572;43.120;1.178;2022-07-17T00:02:36;3.95;;;3.00;;
26391;SDS011;14572;43.120;1.178;2022-07-17T00:05:05;3.53;;;2.80;;
26391;SDS011;14572;43.120;1.178;2022-07-17T00:07:33;4.55;;;2.80;;
26391;SDS011;14572;43.120;1.178;2022-07-17T00:10:00;3.88;;;2.90;;
26391;SDS011;14572;43.120;1.178;2022-07-17T00:12:27;4.15;;;2.90;;
26391;SDS011;14572;43.120;1.178;2022-07-17T00:14:54;3.45;;;3.15;;
26391;SDS011;14572;43.120;1.178;2022-07-17T00:17:22;5.20;;;3.72;;
26391;SDS011;14572;43.120;1.178;2022-07-17T00:19:49;5.28;;;3.60;;
26391;SDS011;14572;43.120;1.178;2022-07-17T00:22:17;4.35;;;3.92;;
26391;SDS011;14572;43.120;1.178;2022-07-17T00:24:45;6.28;;;4.15;;
26391;SDS011;14572;43.120;1.178;2022-07-17T00:27:13;5.88;;;4.53;;
26391;SDS011;14572;43.120;1.178;2022-07-17T00:29:40;5.80;;;4.50;;
26391;SDS011;14572;43.120;1.178;2022-07-17T00:32:07;7.85;;;4.53;;
26391;SDS011;14572;43.120;1.178;2022-07-17T00:34:34;6.82;;;4.97;;
26391;SDS011;14572;43.120;1.178;2022-07-17T00:37:01;5.63;;;4.88;;
26391;SDS011;14572;43.120;1.178;2022-07-17T00:39:29;6.10;;;4.95;;
26391;SDS011;14572;43.120;1.178;2022-07-17T00:41:57;8.30;;;5.22;;
26391;SDS011;14572;43.120;1.178;2022-07-17T00:44:25;6.57;;;5.07;;
26391;SDS011;14572;43.120;1.178;2022-07-17T00:46:52;7.32;;;4.78;;
26391;SDS011;14572;43.120;1.178;2022-07-17T00:49:20;8.55;;;5.53;;
26391;SDS011;14572;43.120;1.178;2022-07-17T00:51:47;7.63;;;5.57;;
26391;SDS011;14572;43.120;1.178;2022-07-17T00:54:15;6.10;;;5.45;;
26391;SDS011;14572;43.120;1.178;2022-07-17T00:56:46;7.22;;;6.15;;
26391;SDS011;14572;43.120;1.178;2022-07-17T00:59:14;7.60;;;6.15;;
26391;SDS011;14572;43.120;1.178;2022-07-17T01:01:42;9.43;;;6.72;;
26391;SDS011;14572;43.120;1.178;2022-07-17T01:04:09;8.93;;;6.82;;
26391;SDS011;14572;43.120;1.178;2022-07-17T01:06:36;9.07;;;7.07;;
26391;SDS011;14572;43.120;1.178;2022-07-17T01:09:03;9.57;;;6.45;;
26391;SDS011;14572;43.120;1.178;2022-07-17T01:11:31;10.23;;;7.60;;
26391;SDS011;14572;43.120;1.178;2022-07-17T01:13:59;10.20;;;7.95;;
26391;SDS011;14572;43.120;1.178;2022-07-17T01:16:26;9.43;;;7.78;;
26391;SDS011;14572;43.120;1.178;2022-07-17T01:18:53;9.18;;;7.07;;
26391;SDS011;14572;43.120;1.178;2022-07-17T01:21:22;11.35;;;8.80;;
26391;SDS011;14572;43.120;1.178;2022-07-17T01:23:49;10.93;;;7.75;;
26391;SDS011;14572;43.120;1.178;2022-07-17T01:26:16;11.65;;;7.88;;
26391;SDS011;14572;43.120;1.178;2022-07-17T01:28:43;12.35;;;8.00;;
26391;SDS011;14572;43.120;1.178;2022-07-17T01:31:10;11.30;;;7.60;;
26391;SDS011;14572;43.120;1.178;2022-07-17T01:33:37;11.63;;;8.50;;
26391;SDS011;14572;43.120;1.178;2022-07-17T01:36:10;12.43;;;8.43;;
26391;SDS011;14572;43.120;1.178;2022-07-17T01:41:24;11.30;;;7.93;;
26391;SDS011;14572;43.120;1.178;2022-07-17T01:47:01;11.38;;;8.10;;
26391;SDS011;14572;43.120;1.178;2022-07-17T01:49:28;9.32;;;7.72;;
26391;SDS011;14572;43.120;1.178;2022-07-17T01:51:56;9.43;;;7.63;;
26391;SDS011;14572;43.120;1.178;2022-07-17T01:54:27;10.18;;;7.75;;
26391;SDS011;14572;43.120;1.178;2022-07-17T01:56:54;9.63;;;7.78;;
26391;SDS011;14572;43.120;1.178;2022-07-17T01:59:22;9.77;;;8.23;;
26391;SDS011;14572;43.120;1.178;2022-07-17T02:01:49;11.40;;;7.45;;
26391;SDS011;14572;43.120;1.178;2022-07-17T02:04:17;13.35;;;8.55;;
26391;SDS011;14572;43.120;1.178;2022-07-17T02:06:44;12.48;;;8.95;;
26391;SDS011;14572;43.120;1.178;2022-07-17T02:09:11;13.07;;;8.43;;
26391;SDS011;14572;43.120;1.178;2022-07-17T02:11:40;12.65;;;8.98;;
26391;SDS011;14572;43.120;1.178;2022-07-17T02:14:07;12.60;;;9.13;;
26391;SDS011;14572;43.120;1.178;2022-07-17T02:16:34;12.73;;;9.32;;
26391;SDS011;14572;43.120;1.178;2022-07-17T02:19:01;14.65;;;10.38;;
26391;SDS011;14572;43.120;1.178;2022-07-17T02:21:28;12.50;;;10.27;;
26391;SDS011;14572;43.120;1.178;2022-07-17T02:23:55;12.88;;;9.73;;
26391;SDS011;14572;43.120;1.178;2022-07-17T02:26:22;12.38;;;9.85;;
26391;SDS011;14572;43.120;1.178;2022-07-17T02:28:52;12.60;;;10.13;;
26391;SDS011;14572;43.120;1.178;2022-07-17T02:31:19;14.65;;;10.82;;
26391;SDS011;14572;43.120;1.178;2022-07-17T02:33:46;21.00;;;10.90;;
26391;SDS011;14572;43.120;1.178;2022-07-17T02:36:13;13.27;;;10.38;;
26391;SDS011;14572;43.120;1.178;2022-07-17T02:38:40;14.40;;;10.70;;
26391;SDS011;14572;43.120;1.178;2022-07-17T02:41:07;13.82;;;10.75;;
26391;SDS011;14572;43.120;1.178;2022-07-17T02:43:34;13.05;;;9.93;;
26391;SDS011;14572;43.120;1.178;2022-07-17T02:46:03;16.45;;;11.52;;
26391;SDS011;14572;43.120;1.178;2022-07-17T02:48:30;16.45;;;10.52;;
26391;SDS011;14572;43.120;1.178;2022-07-17T02:50:57;16.65;;;10.90;;
26391;SDS011;14572;43.120;1.178;2022-07-17T02:53:24;18.88;;;10.75;;
26391;SDS011;14572;43.120;1.178;2022-07-17T02:55:51;13.70;;;10.13;;
26391;SDS011;14572;43.120;1.178;2022-07-17T02:58:18;15.30;;;10.98;;
26391;SDS011;14572;43.120;1.178;2022-07-17T03:00:46;13.00;;;10.65;;
26391;SDS011;14572;43.120;1.178;2022-07-17T03:03:15;17.80;;;10.60;;
26391;SDS011;14572;43.120;1.178;2022-07-17T03:05:43;14.10;;;10.57;;
26391;SDS011;14572;43.120;1.178;2022-07-17T03:08:10;14.45;;;10.88;;
26391;SDS011;14572;43.120;1.178;2022-07-17T03:10:38;13.48;;;11.00;;
26391;SDS011;14572;43.120;1.178;2022-07-17T03:13:05;14.88;;;10.73;;
26391;SDS011;14572;43.120;1.178;2022-07-17T03:15:33;16.77;;;10.60;;
26391;SDS011;14572;43.120;1.178;2022-07-17T03:18:00;13.27;;;10.82;;
26391;SDS011;14572;43.120;1.178;2022-07-17T03:20:28;14.43;;;10.60;;
26391;SDS011;14572;43.120;1.178;2022-07-17T03:22:56;14.13;;;10.80;;
26391;SDS011;14572;43.120;1.178;2022-07-17T03:25:23;13.55;;;11.15;;
26391;SDS011;14572;43.120;1.178;2022-07-17T03:27:50;13.88;;;10.85;;
26391;SDS011;14572;43.120;1.178;2022-07-17T03:30:17;15.63;;;11.60;;
26391;SDS011;14572;43.120;1.178;2022-07-17T03:32:44;13.90;;;11.10;;
26391;SDS011;14572;43.120;1.178;2022-07-17T03:35:11;16.90;;;11.70;;
26391;SDS011;14572;43.120;1.178;2022-07-17T03:37:40;14.15;;;11.15;;
26391;SDS011;14572;43.120;1.178;2022-07-17T03:40:09;17.65;;;11.80;;
26391;SDS011;14572;43.120;1.178;2022-07-17T03:42:37;17.30;;;12.10;;
26391;SDS011;14572;43.120;1.178;2022-07-17T03:45:04;16.27;;;12.30;;
26391;SDS011;14572;43.120;1.178;2022-07-17T03:47:32;14.88;;;11.95;;
26391;SDS011;14572;43.120;1.178;2022-07-17T03:49:59;17.58;;;12.40;;
26391;SDS011;14572;43.120;1.178;2022-07-17T03:52:26;17.33;;;11.75;;
26391;SDS011;14572;43.120;1.178;2022-07-17T03:58:17;15.48;;;11.98;;
26391;SDS011;14572;43.120;1.178;2022-07-17T04:00:43;16.50;;;12.15;;
26391;SDS011;14572;43.120;1.178;2022-07-17T04:03:11;15.60;;;12.55;;
26391;SDS011;14572;43.120;1.178;2022-07-17T04:05:38;18.02;;;12.75;;
26391;SDS011;14572;43.120;1.178;2022-07-17T04:08:05;16.92;;;12.52;;
26391;SDS011;14572;43.120;1.178;2022-07-17T04:10:32;17.75;;;12.43;;
26391;SDS011;14572;43.120;1.178;2022-07-17T04:13:00;16.88;;;12.98;;
26391;SDS011;14572;43.120;1.178;2022-07-17T04:25:34;16.63;;;12.48;;
26391;SDS011;14572;43.120;1.178;2022-07-17T04:28:02;17.63;;;12.85;;
26391;SDS011;14572;43.120;1.178;2022-07-17T04:30:29;17.85;;;12.43;;
26391;SDS011;14572;43.120;1.178;2022-07-17T04:32:56;18.08;;;11.93;;
26391;SDS011;14572;43.120;1.178;2022-07-17T04:35:24;19.15;;;12.68;;
26391;SDS011;14572;43.120;1.178;2022-07-17T04:37:51;17.85;;;13.27;;
26391;SDS011;14572;43.120;1.178;2022-07-17T04:40:18;16.50;;;12.95;;
26391;SDS011;14572;43.120;1.178;2022-07-17T04:42:47;19.73;;;13.00;;
26391;SDS011;14572;43.120;1.178;2022-07-17T04:45:14;16.17;;;12.80;;
26391;SDS011;14572;43.120;1.178;2022-07-17T04:47:41;16.48;;;12.30;;
26391;SDS011;14572;43.120;1.178;2022-07-17T04:53:30;17.73;;;12.65;;
26391;SDS011;14572;43.120;1.178;2022-07-17T04:56:00;17.65;;;12.82;;
26391;SDS011;14572;43.120;1.178;2022-07-17T04:58:29;18.25;;;13.70;;
26391;SDS011;14572;43.120;1.178;2022-07-17T05:00:56;16.90;;;13.15;;
26391;SDS011;14572;43.120;1.178;2022-07-17T05:03:23;16.20;;;12.45;;
26391;SDS011;14572;43.120;1.178;2022-07-17T05:05:50;18.70;;;12.48;;
26391;SDS011;14572;43.120;1.178;2022-07-17T05:08:17;18.13;;;12.73;;
26391;SDS011;14572;43.120;1.178;2022-07-17T05:10:45;15.85;;;13.05;;
26391;SDS011;14572;43.120;1.178;2022-07-17T05:13:15;18.55;;;12.80;;
26391;SDS011;14572;43.120;1.178;2022-07-17T05:15:44;17.00;;;12.73;;
26391;SDS011;14572;43.120;1.178;2022-07-17T05:18:11;18.25;;;13.65;;
26391;SDS011;14572;43.120;1.178;2022-07-17T05:20:39;17.13;;;13.02;;
26391;SDS011;14572;43.120;1.178;2022-07-17T05:23:06;17.35;;;12.82;;
26391;SDS011;14572;43.120;1.178;2022-07-17T05:25:33;15.55;;;12.85;;
26391;SDS011;14572;43.120;1.178;2022-07-17T05:28:01;17.13;;;12.95;;
26391;SDS011;14572;43.120;1.178;2022-07-17T05:30:28;17.83;;;13.38;;
26391;SDS011;14572;43.120;1.178;2022-07-17T05:32:57;17.58;;;12.80;;
26391;SDS011;14572;43.120;1.178;2022-07-17T05:35:24;14.20;;;11.70;;
26391;SDS011;14572;43.120;1.178;2022-07-17T05:37:51;18.30;;;13.20;;
26391;SDS011;14572;43.120;1.178;2022-07-17T05:40:18;15.90;;;12.25;;
26391;SDS011;14572;43.120;1.178;2022-07-17T05:42:45;16.10;;;12.02;;
26391;SDS011;14572;43.120;1.178;2022-07-17T05:45:12;20.55;;;12.85;;
26391;SDS011;14572;43.120;1.178;2022-07-17T05:47:39;16.90;;;13.55;;
26391;SDS011;14572;43.120;1.178;2022-07-17T05:50:08;19.40;;;12.55;;
26391;SDS011;14572;43.120;1.178;2022-07-17T05:52:36;16.00;;;11.68;;
26391;SDS011;14572;43.120;1.178;2022-07-17T05:55:03;15.25;;;11.68;;
26391;SDS011;14572;43.120;1.178;2022-07-17T05:57:30;14.50;;;11.20;;
26391;SDS011;14572;43.120;1.178;2022-07-17T05:59:57;15.85;;;12.43;;
26391;SDS011;14572;43.120;1.178;2022-07-17T06:02:25;17.20;;;12.07;;
26391;SDS011;14572;43.120;1.178;2022-07-17T06:04:53;16.05;;;12.27;;
26391;SDS011;14572;43.120;1.178;2022-07-17T06:07:21;17.33;;;12.13;;
26391;SDS011;14572;43.120;1.178;2022-07-17T06:09:48;16.75;;;12.43;;
26391;SDS011;14572;43.120;1.178;2022-07-17T06:12:15;15.52;;;11.82;;
26391;SDS011;14572;43.120;1.178;2022-07-17T06:14:42;15.50;;;11.82;;
26391;SDS011;14572;43.120;1.178;2022-07-17T06:17:10;13.88;;;11.57;;
26391;SDS011;14572;43.120;1.178;2022-07-17T06:19:37;15.52;;;11.70;;
26391;SDS011;14572;43.120;1.178;2022-07-17T06:22:04;13.35;;;11.20;;
26391;SDS011;14572;43.120;1.178;2022-07-17T06:24:32;17.80;;;11.85;;
26391;SDS011;14572;43.120;1.178;2022-07-17T06:30:21;16.05;;;10.95;;
26391;SDS011;14572;43.120;1.178;2022-07-17T06:32:48;16.42;;;11.50;;
26391;SDS011;14572;43.120;1.178;2022-07-17T06:35:15;16.23;;;11.30;;
26391;SDS011;14572;43.120;1.178;2022-07-17T06:40:49;13.52;;;10.75;;
26391;SDS011;14572;43.120;1.178;2022-07-17T06:43:16;12.88;;;10.82;;
26391;SDS011;14572;43.120;1.178;2022-07-17T06:45:43;14.93;;;11.13;;
26391;SDS011;14572;43.120;1.178;2022-07-17T06:48:10;14.27;;;10.88;;
26391;SDS011;14572;43.120;1.178;2022-07-17T06:50:37;14.43;;;10.63;;
26391;SDS011;14572;43.120;1.178;2022-07-17T06:53:04;12.80;;;10.75;;
26391;SDS011;14572;43.120;1.178;2022-07-17T06:55:31;13.75;;;10.77;;
26391;SDS011;14572;43.120;1.178;2022-07-17T06:58:00;12.27;;;10.55;;
26391;SDS011;14572;43.120;1.178;2022-07-17T07:00:27;13.82;;;10.40;;
26391;SDS011;14572;43.120;1.178;2022-07-17T07:02:54;13.88;;;10.32;;
26391;SDS011;14572;43.120;1.178;2022-07-17T07:05:22;13.35;;;10.38;;
26391;SDS011;14572;43.120;1.178;2022-07-17T07:07:49;12.00;;;10.25;;
26391;SDS011;14572;43.120;1.178;2022-07-17T07:17:08;13.60;;;10.30;;
26391;SDS011;14572;43.120;1.178;2022-07-17T07:19:35;13.75;;;10.95;;
26391;SDS011;14572;43.120;1.178;2022-07-17T07:22:03;16.52;;;9.88;;
26391;SDS011;14572;43.120;1.178;2022-07-17T07:24:30;12.68;;;9.75;;
26391;SDS011;14572;43.120;1.178;2022-07-17T07:26:57;12.93;;;9.45;;
26391;SDS011;14572;43.120;1.178;2022-07-17T07:39:03;12.77;;;9.75;;
26391;SDS011;14572;43.120;1.178;2022-07-17T07:47:53;12.70;;;9.82;;
26391;SDS011;14572;43.120;1.178;2022-07-17T07:50:23;14.50;;;10.55;;
26391;SDS011;14572;43.120;1.178;2022-07-17T07:52:51;11.48;;;9.18;;
26391;SDS011;14572;43.120;1.178;2022-07-17T07:55:18;14.93;;;9.15;;
26391;SDS011;14572;43.120;1.178;2022-07-17T07:57:46;13.43;;;9.80;;
26391;SDS011;14572;43.120;1.178;2022-07-17T08:00:13;11.45;;;9.00;;
26391;SDS011;14572;43.120;1.178;2022-07-17T08:02:40;12.85;;;8.90;;
26391;SDS011;14572;43.120;1.178;2022-07-17T08:05:08;10.85;;;8.77;;
26391;SDS011;14572;43.120;1.178;2022-07-17T08:07:37;13.98;;;8.95;;
26391;SDS011;14572;43.120;1.178;2022-07-17T08:10:04;11.20;;;8.40;;
26391;SDS011;14572;43.120;1.178;2022-07-17T08:12:31;12.88;;;8.80;;
26391;SDS011;14572;43.120;1.178;2022-07-17T08:14:58;14.35;;;9.13;;
26391;SDS011;14572;43.120;1.178;2022-07-17T08:17:25;12.45;;;8.18;;
26391;SDS011;14572;43.120;1.178;2022-07-17T08:19:52;14.00;;;8.07;;
26391;SDS011;14572;43.120;1.178;2022-07-17T08:22:19;11.45;;;7.85;;
26391;SDS011;14572;43.120;1.178;2022-07-17T08:24:48;9.02;;;8.07;;
26391;SDS011;14572;43.120;1.178;2022-07-17T08:27:15;13.20;;;8.13;;
26391;SDS011;14572;43.120;1.178;2022-07-17T08:29:42;12.38;;;8.27;;
26391;SDS011;14572;43.120;1.178;2022-07-17T08:32:09;10.95;;;8.00;;
26391;SDS011;14572;43.120;1.178;2022-07-17T08:34:36;9.88;;;8.55;;
26391;SDS011;14572;43.120;1.178;2022-07-17T08:37:03;13.82;;;8.48;;
26391;SDS011;14572;43.120;1.178;2022-07-17T08:39:30;11.80;;;8.23;;
26391;SDS011;14572;43.120;1.178;2022-07-17T08:45:17;10.55;;;8.30;;
26391;SDS011;14572;43.120;1.178;2022-07-17T08:47:44;12.90;;;8.13;;
26391;SDS011;14572;43.120;1.178;2022-07-17T08:53:38;11.82;;;8.00;;
26391;SDS011;14572;43.120;1.178;2022-07-17T08:56:07;11.27;;;7.80;;
26391;SDS011;14572;43.120;1.178;2022-07-17T08:58:35;10.93;;;6.88;;
26391;SDS011;14572;43.120;1.178;2022-07-17T09:01:03;8.85;;;6.03;;
26391;SDS011;14572;43.120;1.178;2022-07-17T09:03:30;10.90;;;6.80;;
26391;SDS011;14572;43.120;1.178;2022-07-17T09:05:58;8.13;;;5.95;;
26391;SDS011;14572;43.120;1.178;2022-07-17T09:08:26;6.68;;;5.38;;
26391;SDS011;14572;43.120;1.178;2022-07-17T09:11:01;7.38;;;6.25;;
26391;SDS011;14572;43.120;1.178;2022-07-17T09:13:33;9.07;;;6.22;;
26391;SDS011;14572;43.120;1.178;2022-07-17T09:16:14;6.65;;;5.68;;
26391;SDS011;14572;43.120;1.178;2022-07-17T09:18:48;7.32;;;5.93;;
26391;SDS011;14572;43.120;1.178;2022-07-17T09:34:44;9.80;;;5.63;;
26391;SDS011;14572;43.120;1.178;2022-07-17T09:37:16;6.80;;;5.30;;
26391;SDS011;14572;43.120;1.178;2022-07-17T09:39:43;7.43;;;5.53;;
26391;SDS011;14572;43.120;1.178;2022-07-17T09:42:21;6.20;;;5.05;;
26391;SDS011;14572;43.120;1.178;2022-07-17T09:44:56;5.60;;;4.35;;
26391;SDS011;14572;43.120;1.178;2022-07-17T09:47:24;6.80;;;5.10;;
26391;SDS011;14572;43.120;1.178;2022-07-17T09:53:12;4.97;;;4.10;;
26391;SDS011;14572;43.120;1.178;2022-07-17T09:55:39;5.03;;;3.90;;
26391;SDS011;14572;43.120;1.178;2022-07-17T09:58:07;4.95;;;4.32;;
26391;SDS011;14572;43.120;1.178;2022-07-17T10:00:36;4.30;;;3.65;;
26391;SDS011;14572;43.120;1.178;2022-07-17T10:03:03;4.10;;;3.70;;
26391;SDS011;14572;43.120;1.178;2022-07-17T10:05:31;3.75;;;3.33;;
26391;SDS011;14572;43.120;1.178;2022-07-17T10:07:58;4.40;;;4.00;;
26391;SDS011;14572;43.120;1.178;2022-07-17T10:10:27;4.10;;;3.70;;
26391;SDS011;14572;43.120;1.178;2022-07-17T10:12:54;4.18;;;3.38;;
26391;SDS011;14572;43.120;1.178;2022-07-17T10:15:23;4.55;;;2.95;;
26391;SDS011;14572;43.120;1.178;2022-07-17T10:17:51;6.43;;;3.72;;
26391;SDS011;14572;43.120;1.178;2022-07-17T10:20:24;3.85;;;3.40;;
26391;SDS011;14572;43.120;1.178;2022-07-17T10:22:51;5.35;;;3.35;;
26391;SDS011;14572;43.120;1.178;2022-07-17T10:25:19;4.40;;;3.63;;
26391;SDS011;14572;43.120;1.178;2022-07-17T10:27:48;4.22;;;3.25;;
26391;SDS011;14572;43.120;1.178;2022-07-17T10:30:22;3.13;;;2.83;;
26391;SDS011;14572;43.120;1.178;2022-07-17T10:32:52;4.82;;;3.05;;
26391;SDS011;14572;43.120;1.178;2022-07-17T10:35:23;4.07;;;3.30;;
26391;SDS011;14572;43.120;1.178;2022-07-17T10:37:51;5.65;;;3.00;;
26391;SDS011;14572;43.120;1.178;2022-07-17T10:40:19;3.63;;;2.80;;
26391;SDS011;14572;43.120;1.178;2022-07-17T10:42:57;4.78;;;2.85;;
26391;SDS011;14572;43.120;1.178;2022-07-17T10:45:29;3.03;;;2.72;;
26391;SDS011;14572;43.120;1.178;2022-07-17T10:47:59;3.58;;;2.85;;
26391;SDS011;14572;43.120;1.178;2022-07-17T10:50:29;3.40;;;3.10;;
26391;SDS011;14572;43.120;1.178;2022-07-17T10:53:10;4.22;;;2.97;;
26391;SDS011;14572;43.120;1.178;2022-07-17T10:55:41;4.15;;;3.40;;
26391;SDS011;14572;43.120;1.178;2022-07-17T10:58:20;4.47;;;3.28;;
26391;SDS011;14572;43.120;1.178;2022-07-17T11:00:55;4.57;;;2.30;;
26391;SDS011;14572;43.120;1.178;2022-07-17T11:03:26;4.15;;;2.55;;
26391;SDS011;14572;43.120;1.178;2022-07-17T11:05:53;3.40;;;2.80;;
26391;SDS011;14572;43.120;1.178;2022-07-17T11:11:23;4.13;;;2.50;;
26391;SDS011;14572;43.120;1.178;2022-07-17T11:14:10;2.88;;;2.58;;
26391;SDS011;14572;43.120;1.178;2022-07-17T11:16:39;3.35;;;2.72;;
26391;SDS011;14572;43.120;1.178;2022-07-17T11:19:10;2.17;;;1.98;;
26391;SDS011;14572;43.120;1.178;2022-07-17T11:24:34;2.75;;;1.80;;
26391;SDS011;14572;43.120;1.178;2022-07-17T11:27:02;5.25;;;1.90;;
26391;SDS011;14572;43.120;1.178;2022-07-17T11:29:30;2.28;;;2.00;;
26391;SDS011;14572;43.120;1.178;2022-07-17T11:32:03;2.38;;;2.17;;
26391;SDS011;14572;43.120;1.178;2022-07-17T11:34:30;2.25;;;2.05;;
26391;SDS011;14572;43.120;1.178;2022-07-17T11:36:58;4.38;;;2.25;;
26391;SDS011;14572;43.120;1.178;2022-07-17T11:39:26;2.47;;;2.00;;
26391;SDS011;14572;43.120;1.178;2022-07-17T11:42:03;3.45;;;2.30;;
26391;SDS011;14572;43.120;1.178;2022-07-17T11:44:35;2.35;;;2.15;;
26391;SDS011;14572;43.120;1.178;2022-07-17T11:47:02;3.33;;;2.53;;
26391;SDS011;14572;43.120;1.178;2022-07-17T11:49:30;2.50;;;2.15;;
26391;SDS011;14572;43.120;1.178;2022-07-17T11:51:58;3.13;;;2.67;;
26391;SDS011;14572;43.120;1.178;2022-07-17T11:54:26;3.15;;;2.10;;
26391;SDS011;14572;43.120;1.178;2022-07-17T11:56:55;2.35;;;1.88;;
26391;SDS011;14572;43.120;1.178;2022-07-17T11:59:24;2.95;;;2.00;;
26391;SDS011;14572;43.120;1.178;2022-07-17T12:01:54;2.50;;;2.20;;
26391;SDS011;14572;43.120;1.178;2022-07-17T12:04:21;3.22;;;2.05;;
26391;SDS011;14572;43.120;1.178;2022-07-17T12:06:57;2.35;;;2.15;;
26391;SDS011;14572;43.120;1.178;2022-07-17T12:09:26;3.95;;;2.60;;
26391;SDS011;14572;43.120;1.178;2022-07-17T12:11:53;2.95;;;2.53;;
26391;SDS011;14572;43.120;1.178;2022-07-17T12:14:20;3.00;;;2.15;;
26391;SDS011;14572;43.120;1.178;2022-07-17T12:16:47;2.33;;;1.90;;
26391;SDS011;14572;43.120;1.178;2022-07-17T12:19:16;3.10;;;2.20;;
26391;SDS011;14572;43.120;1.178;2022-07-17T12:21:50;3.13;;;2.28;;
26391;SDS011;14572;43.120;1.178;2022-07-17T12:24:23;2.38;;;2.17;;
26391;SDS011;14572;43.120;1.178;2022-07-17T12:26:52;2.83;;;1.70;;
26391;SDS011;14572;43.120;1.178;2022-07-17T12:29:20;2.33;;;2.13;;
26391;SDS011;14572;43.120;1.178;2022-07-17T12:31:47;1.80;;;1.70;;
26391;SDS011;14572;43.120;1.178;2022-07-17T12:34:15;2.42;;;1.83;;
26391;SDS011;14572;43.120;1.178;2022-07-17T12:36:42;2.38;;;2.00;;
26391;SDS011;14572;43.120;1.178;2022-07-17T12:39:09;3.17;;;1.95;;
26391;SDS011;14572;43.120;1.178;2022-07-17T12:41:36;3.08;;;1.98;;
26391;SDS011;14572;43.120;1.178;2022-07-17T12:44:03;2.03;;;1.92;;
26391;SDS011;14572;43.120;1.178;2022-07-17T12:46:31;3.42;;;1.98;;
26391;SDS011;14572;43.120;1.178;2022-07-17T12:48:58;2.10;;;1.90;;
26391;SDS011;14572;43.120;1.178;2022-07-17T12:51:26;2.90;;;2.38;;
26391;SDS011;14572;43.120;1.178;2022-07-17T12:53:53;2.40;;;2.00;;
26391;SDS011;14572;43.120;1.178;2022-07-17T12:56:20;8.05;;;2.75;;
26391;SDS011;14572;43.120;1.178;2022-07-17T12:58:48;2.50;;;2.30;;
26391;SDS011;14572;43.120;1.178;2022-07-17T13:01:15;4.53;;;2.70;;
26391;SDS011;14572;43.120;1.178;2022-07-17T13:03:42;2.50;;;2.20;;
26391;SDS011;14572;43.120;1.178;2022-07-17T13:06:09;2.88;;;2.53;;
26391;SDS011;14572;43.120;1.178;2022-07-17T13:08:37;2.55;;;2.35;;
26391;SDS011;14572;43.120;1.178;2022-07-17T13:11:04;4.30;;;2.78;;
26391;SDS011;14572;43.120;1.178;2022-07-17T13:13:32;2.70;;;2.50;;
26391;SDS011;14572;43.120;1.178;2022-07-17T13:15:59;3.33;;;2.40;;
26391;SDS011;14572;43.120;1.178;2022-07-17T13:18:26;2.58;;;2.38;;
26391;SDS011;14572;43.120;1.178;2022-07-17T13:20:53;3.58;;;2.30;;
26391;SDS011;14572;43.120;1.178;2022-07-17T13:23:21;5.60;;;2.92;;
26391;SDS011;14572;43.120;1.178;2022-07-17T13:25:50;2.58;;;2.10;;
26391;SDS011;14572;43.120;1.178;2022-07-17T13:28:17;4.15;;;2.30;;
26391;SDS011;14572;43.120;1.178;2022-07-17T13:30:44;3.90;;;2.22;;
26391;SDS011;14572;43.120;1.178;2022-07-17T13:33:12;2.65;;;1.90;;
26391;SDS011;14572;43.120;1.178;2022-07-17T13:35:39;2.47;;;2.25;;
26391;SDS011;14572;43.120;1.178;2022-07-17T13:38:06;2.83;;;2.42;;
26391;SDS011;14572;43.120;1.178;2022-07-17T13:40:34;2.30;;;2.10;;
26391;SDS011;14572;43.120;1.178;2022-07-17T13:43:04;2.72;;;2.15;;
26391;SDS011;14572;43.120;1.178;2022-07-17T13:45:32;2.13;;;1.88;;
26391;SDS011;14572;43.120;1.178;2022-07-17T13:47:59;2.45;;;2.00;;
26391;SDS011;14572;43.120;1.178;2022-07-17T13:50:27;2.25;;;1.90;;
26391;SDS011;14572;43.120;1.178;2022-07-17T13:52:54;2.65;;;2.28;;
26391;SDS011;14572;43.120;1.178;2022-07-17T13:55:21;2.08;;;1.88;;
26391;SDS011;14572;43.120;1.178;2022-07-17T13:57:48;2.20;;;2.00;;
26391;SDS011;14572;43.120;1.178;2022-07-17T14:00:17;1.77;;;1.67;;
26391;SDS011;14572;43.120;1.178;2022-07-17T14:02:44;2.00;;;1.83;;
26391;SDS011;14572;43.120;1.178;2022-07-17T14:05:11;2.65;;;1.92;;
26391;SDS011;14572;43.120;1.178;2022-07-17T14:07:38;2.30;;;1.70;;
26391;SDS011;14572;43.120;1.178;2022-07-17T14:10:05;2.20;;;1.80;;
26391;SDS011;14572;43.120;1.178;2022-07-17T14:12:33;1.75;;;1.60;;
26391;SDS011;14572;43.120;1.178;2022-07-17T14:15:00;1.80;;;1.70;;
26391;SDS011;14572;43.120;1.178;2022-07-17T14:17:29;1.75;;;1.60;;
26391;SDS011;14572;43.120;1.178;2022-07-17T14:19:58;5.20;;;2.38;;
26391;SDS011;14572;43.120;1.178;2022-07-17T14:22:24;2.30;;;1.45;;
26391;SDS011;14572;43.120;1.178;2022-07-17T14:24:52;2.13;;;1.50;;
26391;SDS011;14572;43.120;1.178;2022-07-17T14:27:19;1.98;;;1.77;;
26391;SDS011;14572;43.120;1.178;2022-07-17T14:29:47;1.65;;;1.50;;
26391;SDS011;14572;43.120;1.178;2022-07-17T14:32:14;1.98;;;1.42;;
26391;SDS011;14572;43.120;1.178;2022-07-17T14:34:42;1.40;;;1.30;;
26391;SDS011;14572;43.120;1.178;2022-07-17T14:37:09;1.80;;;1.45;;
26391;SDS011;14572;43.120;1.178;2022-07-17T14:39:36;5.10;;;1.50;;
26391;SDS011;14572;43.120;1.178;2022-07-17T14:42:03;1.75;;;1.42;;
26391;SDS011;14572;43.120;1.178;2022-07-17T14:44:30;1.85;;;1.48;;
26391;SDS011;14572;43.120;1.178;2022-07-17T14:46:59;2.53;;;1.75;;
26391;SDS011;14572;43.120;1.178;2022-07-17T14:49:26;2.20;;;1.38;;
26391;SDS011;14572;43.120;1.178;2022-07-17T14:51:56;1.55;;;1.27;;
26391;SDS011;14572;43.120;1.178;2022-07-17T14:54:23;2.05;;;1.42;;
26391;SDS011;14572;43.120;1.178;2022-07-17T14:56:50;1.60;;;1.50;;
26391;SDS011;14572;43.120;1.178;2022-07-17T14:59:17;1.60;;;1.40;;
26391;SDS011;14572;43.120;1.178;2022-07-17T15:01:44;6.78;;;1.50;;
26391;SDS011;14572;43.120;1.178;2022-07-17T15:04:11;1.65;;;1.38;;
26391;SDS011;14572;43.120;1.178;2022-07-17T15:06:38;1.42;;;1.33;;
26391;SDS011;14572;43.120;1.178;2022-07-17T15:09:08;1.40;;;1.30;;
26391;SDS011;14572;43.120;1.178;2022-07-17T15:11:34;1.63;;;1.33;;
26391;SDS011;14572;43.120;1.178;2022-07-17T15:14:02;1.70;;;1.60;;
26391;SDS011;14572;43.120;1.178;2022-07-17T15:16:29;1.88;;;1.55;;
26391;SDS011;14572;43.120;1.178;2022-07-17T15:18:56;1.75;;;1.65;;
26391;SDS011;14572;43.120;1.178;2022-07-17T15:21:23;1.60;;;1.50;;
26391;SDS011;14572;43.120;1.178;2022-07-17T15:23:50;2.85;;;2.10;;
26391;SDS011;14572;43.120;1.178;2022-07-17T15:26:19;2.15;;;1.60;;
26391;SDS011;14572;43.120;1.178;2022-07-17T15:28:46;1.65;;;1.48;;
26391;SDS011;14572;43.120;1.178;2022-07-17T15:31:13;2.17;;;1.70;;
26391;SDS011;14572;43.120;1.178;2022-07-17T15:33:40;1.60;;;1.50;;
26391;SDS011;14572;43.120;1.178;2022-07-17T15:36:08;2.05;;;1.40;;
26391;SDS011;14572;43.120;1.178;2022-07-17T15:38:35;2.05;;;1.75;;
26391;SDS011;14572;43.120;1.178;2022-07-17T15:41:03;1.98;;;1.48;;
26391;SDS011;14572;43.120;1.178;2022-07-17T15:43:31;1.60;;;1.50;;
26391;SDS011;14572;43.120;1.178;2022-07-17T15:45:58;1.90;;;1.80;;
26391;SDS011;14572;43.120;1.178;2022-07-17T15:48:25;2.53;;;1.58;;
26391;SDS011;14572;43.120;1.178;2022-07-17T15:50:53;1.60;;;1.50;;
26391;SDS011;14572;43.120;1.178;2022-07-17T15:53:20;1.45;;;1.35;;
26391;SDS011;14572;43.120;1.178;2022-07-17T15:55:47;1.85;;;1.38;;
26391;SDS011;14572;43.120;1.178;2022-07-17T15:58:14;2.53;;;1.30;;
26391;SDS011;14572;43.120;1.178;2022-07-17T16:00:43;2.55;;;1.30;;
26391;SDS011;14572;43.120;1.178;2022-07-17T16:03:10;1.75;;;1.45;;